createdAt,value
2019-03-15T00:02:13.742Z,25.27
2019-03-15T00:04:43.014Z,30.97
2019-03-15T00:07:13.339Z,25.60
2019-03-15T00:09:42.616Z,29.87
2019-03-15T00:12:11.876Z,27.53
2019-03-15T00:14:41.154Z,28.40
2019-03-15T00:17:10.414Z,23.90
2019-03-15T00:19:39.697Z,30.50
2019-03-15T00:22:08.956Z,31.87
2019-03-15T00:24:38.224Z,29.37
2019-03-15T00:27:07.493Z,29.73
2019-03-15T00:29:36.755Z,25.20
2019-03-15T00:32:06.017Z,29.67
2019-03-15T00:34:35.290Z,23.27
2019-03-15T00:37:04.555Z,20.57
2019-03-15T00:39:33.839Z,23.53
2019-03-15T00:42:03.197Z,24.73
2019-03-15T00:44:32.442Z,22.53
2019-03-15T00:47:01.707Z,28.67
2019-03-15T00:49:31.021Z,24.97
2019-03-15T00:52:00.335Z,26.37
2019-03-15T00:54:29.963Z,19.33
2019-03-15T00:56:59.230Z,23.50
2019-03-15T00:59:28.532Z,22.50
2019-03-15T01:01:57.797Z,13.27
2019-03-15T01:04:27.058Z,32.17
2019-03-15T01:06:56.362Z,24.93
2019-03-15T01:09:25.719Z,20.37
2019-03-15T01:11:55.005Z,26.57
2019-03-15T01:14:24.342Z,22.77
2019-03-15T01:16:53.597Z,23.77
2019-03-15T01:19:22.874Z,21.17
2019-03-15T01:21:52.141Z,25.57
2019-03-15T01:24:21.431Z,24.00
2019-03-15T01:26:50.782Z,27.43
2019-03-15T01:29:20.095Z,27.20
2019-03-15T01:31:49.356Z,24.97
2019-03-15T01:34:18.626Z,26.60
2019-03-15T01:36:47.897Z,22.87
2019-03-15T01:39:17.159Z,34.73
2019-03-15T01:41:46.454Z,27.43
2019-03-15T01:44:15.721Z,26.50
2019-03-15T01:46:45.020Z,16.90
2019-03-15T01:49:14.335Z,21.60
2019-03-15T01:51:43.622Z,23.93
2019-03-15T01:54:13.581Z,33.83
2019-03-15T01:56:43.065Z,24.03
2019-03-15T01:59:12.342Z,28.80
2019-03-15T02:01:41.630Z,26.87
2019-03-15T02:04:10.908Z,19.60
2019-03-15T02:06:40.185Z,20.93
2019-03-15T02:09:09.570Z,20.97
2019-03-15T02:11:38.817Z,23.03
2019-03-15T02:14:08.076Z,21.63
2019-03-15T02:16:37.359Z,29.07
2019-03-15T02:19:06.624Z,24.13
2019-03-15T02:21:35.891Z,23.60
2019-03-15T02:24:05.228Z,19.73
2019-03-15T02:26:34.530Z,18.33
2019-03-15T02:29:03.861Z,28.30
2019-03-15T02:31:33.144Z,20.43
2019-03-15T02:34:02.411Z,24.23
2019-03-15T02:36:31.683Z,27.27
2019-03-15T02:39:00.940Z,19.20
2019-03-15T02:41:30.386Z,28.93
2019-03-15T02:43:59.641Z,20.73
2019-03-15T02:46:28.946Z,19.93
2019-03-15T02:48:58.177Z,22.77
2019-03-15T02:51:27.516Z,13.53
2019-03-15T02:53:56.830Z,16.93
2019-03-15T02:56:26.097Z,28.83
2019-03-15T02:58:55.353Z,14.83
2019-03-15T03:01:25.597Z,19.73
2019-03-15T03:03:54.864Z,14.93
2019-03-15T03:06:25.201Z,18.63
2019-03-15T03:08:54.482Z,20.90
2019-03-15T03:11:24.098Z,20.10
2019-03-15T03:13:53.600Z,21.93
2019-03-15T03:16:22.887Z,23.33
2019-03-15T03:18:52.155Z,16.40
2019-03-15T03:21:21.436Z,21.17
2019-03-15T03:23:50.705Z,17.83
2019-03-15T03:26:20.003Z,15.47
2019-03-15T03:28:49.268Z,22.00
2019-03-15T03:31:18.537Z,17.60
2019-03-15T03:33:47.807Z,21.03
2019-03-15T03:36:17.077Z,24.97
2019-03-15T03:38:46.340Z,17.30
2019-03-15T03:41:15.600Z,18.43
2019-03-15T03:43:45.137Z,15.23
2019-03-15T03:46:14.570Z,13.70
2019-03-15T03:48:43.937Z,15.30
2019-03-15T03:51:13.193Z,18.17
2019-03-15T03:53:42.474Z,22.27
2019-03-15T03:56:11.741Z,14.50
2019-03-15T03:58:41.012Z,18.23
2019-03-15T04:01:10.434Z,22.37
2019-03-15T04:03:40.782Z,18.70
2019-03-15T04:06:10.517Z,18.50
2019-03-15T04:08:39.793Z,14.00
2019-03-15T04:11:09.059Z,15.40
2019-03-15T04:13:38.338Z,14.13
2019-03-15T04:16:07.605Z,17.73
2019-03-15T04:18:37.236Z,22.70
2019-03-15T04:21:06.529Z,19.47
2019-03-15T04:23:38.293Z,24.70
2019-03-15T04:26:07.796Z,20.97
2019-03-15T04:28:37.079Z,20.67
2019-03-15T04:31:06.379Z,28.20
2019-03-15T04:33:35.616Z,23.03
2019-03-15T04:36:04.881Z,24.97
2019-03-15T04:38:34.177Z,16.50
2019-03-15T04:41:03.436Z,19.30
2019-03-15T04:43:32.726Z,16.63
2019-03-15T04:46:02.002Z,19.67
2019-03-15T04:48:31.258Z,25.87
2019-03-15T04:51:00.536Z,29.77
2019-03-15T04:53:29.796Z,19.90
2019-03-15T04:56:00.041Z,23.93
2019-03-15T04:58:29.384Z,24.53
2019-03-15T05:00:58.641Z,28.97
2019-03-15T05:03:27.898Z,15.20
2019-03-15T05:06:03.026Z,24.40
2019-03-15T05:08:28.160Z,25.87
2019-03-15T05:10:57.421Z,28.37
2019-03-15T05:13:26.775Z,22.43
2019-03-15T05:15:56.042Z,27.80
2019-03-15T05:18:25.324Z,26.40
2019-03-15T05:20:54.583Z,20.00
2019-03-15T05:23:23.851Z,30.27
2019-03-15T05:25:53.137Z,24.80
2019-03-15T05:28:22.405Z,19.33
2019-03-15T05:30:52.657Z,30.87
2019-03-15T05:33:21.928Z,21.30
2019-03-15T05:35:51.269Z,34.87
2019-03-15T05:38:20.535Z,24.40
2019-03-15T05:40:49.802Z,19.00
2019-03-15T05:43:19.059Z,30.83
2019-03-15T05:45:48.358Z,28.07
2019-03-15T05:48:17.627Z,25.50
2019-03-15T05:50:46.901Z,30.27
2019-03-15T05:53:16.162Z,29.77
2019-03-15T05:55:45.432Z,35.97
2019-03-15T05:58:14.689Z,35.90
2019-03-15T06:00:43.966Z,37.80
2019-03-15T06:03:13.239Z,27.83
2019-03-15T06:05:43.572Z,41.00
2019-03-15T06:08:12.837Z,35.27
2019-03-15T06:10:43.011Z,27.67
2019-03-15T06:13:12.284Z,38.10
2019-03-15T06:15:41.557Z,31.47
2019-03-15T06:18:10.823Z,25.50
2019-03-15T06:20:40.110Z,25.57
2019-03-15T06:23:09.376Z,30.60
2019-03-15T06:25:38.653Z,35.37
2019-03-15T06:28:07.918Z,29.23
2019-03-15T06:30:37.197Z,32.53
2019-03-15T06:33:06.459Z,33.67
2019-03-15T06:35:35.733Z,31.63
2019-03-15T06:38:05.007Z,37.00
2019-03-15T06:40:34.282Z,27.80
2019-03-15T06:43:03.541Z,28.93
2019-03-15T06:45:32.822Z,22.13
2019-03-15T06:48:02.078Z,32.97
2019-03-15T06:50:31.352Z,28.10
2019-03-15T06:53:00.611Z,31.77
2019-03-15T06:55:29.906Z,28.70
2019-03-15T06:57:59.171Z,29.97
2019-03-15T07:00:28.435Z,32.30
2019-03-15T07:02:57.709Z,25.93
2019-03-15T07:05:26.990Z,30.00
2019-03-15T07:07:56.252Z,23.03
2019-03-15T07:10:25.527Z,21.77
2019-03-15T07:12:54.789Z,34.40
2019-03-15T07:15:24.081Z,23.33
2019-03-15T07:17:53.347Z,26.67
2019-03-15T07:20:22.606Z,25.13
2019-03-15T07:22:51.888Z,28.37
2019-03-15T07:25:21.208Z,27.13
2019-03-15T07:27:50.477Z,24.23
2019-03-15T07:30:19.745Z,22.70
2019-03-15T07:32:49.019Z,27.47
2019-03-15T07:35:18.302Z,22.40
2019-03-15T07:37:48.627Z,24.97
2019-03-15T07:40:18.393Z,25.77
2019-03-15T07:42:47.853Z,30.33
2019-03-15T07:45:17.118Z,27.97
2019-03-15T07:47:51.447Z,25.50
2019-03-15T07:50:20.337Z,24.50
2019-03-15T07:52:49.600Z,21.30
2019-03-15T07:55:18.945Z,43.13
2019-03-15T07:57:48.215Z,24.27
2019-03-15T08:00:18.134Z,30.70
2019-03-15T08:02:47.400Z,30.17
2019-03-15T08:05:16.673Z,22.50
2019-03-15T08:07:46.023Z,33.20
2019-03-15T08:10:15.299Z,24.93
2019-03-15T08:12:44.578Z,18.77
2019-03-15T08:15:14.107Z,24.77
2019-03-15T08:17:43.385Z,26.57
2019-03-15T08:20:13.993Z,29.40
2019-03-15T08:22:43.275Z,28.30
2019-03-15T08:25:12.993Z,24.37
2019-03-15T08:27:42.262Z,36.93
2019-03-15T08:30:13.373Z,29.43
2019-03-15T08:32:43.906Z,24.20
2019-03-15T08:35:13.932Z,28.80
2019-03-15T08:37:43.199Z,21.83
2019-03-15T08:40:13.813Z,29.23
2019-03-15T08:42:44.168Z,27.00
2019-03-15T08:45:14.956Z,36.80
2019-03-15T08:47:44.457Z,18.73
2019-03-15T08:50:15.762Z,20.63
2019-03-15T08:52:45.117Z,22.63
2019-03-15T08:55:14.729Z,27.60
2019-03-15T08:57:44.013Z,21.10
2019-03-15T09:00:17.788Z,26.10
2019-03-15T09:02:47.048Z,33.50
2019-03-15T09:05:17.053Z,18.73
2019-03-15T09:07:46.344Z,19.67
2019-03-15T09:10:23.144Z,20.97
2019-03-15T09:12:49.902Z,25.30
2019-03-15T09:15:19.166Z,21.63
2019-03-15T09:17:48.448Z,27.10
2019-03-15T09:20:17.716Z,20.20
2019-03-15T09:22:46.992Z,20.43
2019-03-15T09:25:20.240Z,20.63
2019-03-15T09:27:49.393Z,15.33
2019-03-15T09:30:23.468Z,16.77
2019-03-15T09:32:49.624Z,14.43
2019-03-15T09:35:18.895Z,3.70
2019-03-15T09:37:48.161Z,8.40
2019-03-15T09:40:17.431Z,5.50
2019-03-15T09:42:46.694Z,7.00
2019-03-15T09:45:19.389Z,6.30
2019-03-15T09:47:48.659Z,7.67
2019-03-15T09:50:33.293Z,6.27
2019-03-15T09:52:48.957Z,2.60
2019-03-15T09:55:31.864Z,6.17
2019-03-15T09:57:50.274Z,5.50
2019-03-15T10:00:20.288Z,4.33
2019-03-15T10:02:49.554Z,4.10
2019-03-15T10:05:18.842Z,3.67
2019-03-15T10:07:48.141Z,2.70
2019-03-15T10:10:18.821Z,2.80
2019-03-15T10:12:48.549Z,6.13
2019-03-15T10:15:18.093Z,4.80
2019-03-15T10:17:48.346Z,3.63
2019-03-15T10:20:17.618Z,8.07
2019-03-15T10:23:03.956Z,5.63
2019-03-15T10:25:18.121Z,4.43
2019-03-15T10:27:47.397Z,4.30
2019-03-15T10:30:17.926Z,5.33
2019-03-15T10:32:47.260Z,7.90
2019-03-15T10:35:16.540Z,8.63
2019-03-15T10:37:45.799Z,11.97
2019-03-15T10:40:22.207Z,14.13
2019-03-15T10:42:51.607Z,8.10
2019-03-15T10:45:20.950Z,11.17
2019-03-15T10:47:50.220Z,10.97
2019-03-15T10:50:19.924Z,13.03
2019-03-15T10:52:49.205Z,10.30
2019-03-15T10:55:20.626Z,12.03
2019-03-15T10:57:49.456Z,9.17
2019-03-15T11:00:19.886Z,8.97
2019-03-15T11:02:49.428Z,19.53
2019-03-15T11:05:18.773Z,12.10
2019-03-15T11:07:48.046Z,9.07
2019-03-15T11:10:17.323Z,8.83
2019-03-15T11:12:46.593Z,16.73
2019-03-15T11:15:16.315Z,15.73
2019-03-15T11:17:45.662Z,8.77
2019-03-15T11:20:15.103Z,10.43
2019-03-15T11:22:44.371Z,14.73
2019-03-15T11:25:13.657Z,12.80
2019-03-15T11:27:42.921Z,11.57
2019-03-15T11:30:15.196Z,16.00
2019-03-15T11:32:44.459Z,24.43
2019-03-15T11:35:13.733Z,16.67
2019-03-15T11:37:43.011Z,25.90
2019-03-15T11:40:14.461Z,30.43
2019-03-15T11:42:43.884Z,18.70
2019-03-15T11:45:13.838Z,20.23
2019-03-15T11:48:01.152Z,20.77
2019-03-15T11:50:15.759Z,22.17
2019-03-15T11:52:45.028Z,20.40
2019-03-15T11:55:14.300Z,20.80
2019-03-15T11:57:43.583Z,22.30
2019-03-15T12:00:14.780Z,18.93
2019-03-15T12:02:44.059Z,21.93
2019-03-15T12:05:13.961Z,26.30
2019-03-15T12:07:43.300Z,12.30
2019-03-15T12:10:17.128Z,26.00
2019-03-15T12:12:46.411Z,17.83
2019-03-15T12:15:17.770Z,20.20
2019-03-15T12:17:47.031Z,21.23
2019-03-15T12:20:16.309Z,19.63
2019-03-15T12:22:45.598Z,20.37
2019-03-15T12:25:14.874Z,17.73
2019-03-15T12:27:44.163Z,20.33
2019-03-15T12:30:14.884Z,21.97
2019-03-15T12:32:44.169Z,15.33
2019-03-15T12:35:17.633Z,17.73
2019-03-15T12:37:46.904Z,22.57
2019-03-15T12:40:17.623Z,17.23
2019-03-15T12:42:46.913Z,23.90
2019-03-15T12:45:16.244Z,18.53
2019-03-15T12:47:45.537Z,22.30
2019-03-15T12:50:15.658Z,10.07
2019-03-15T12:52:48.926Z,21.73
2019-03-15T12:55:16.135Z,17.17
2019-03-15T12:57:48.794Z,12.07
2019-03-15T13:00:19.457Z,14.37
2019-03-15T13:02:49.975Z,18.60
2019-03-15T13:05:19.247Z,24.03
2019-03-15T13:07:48.534Z,14.60
2019-03-15T13:10:20.307Z,14.10
2019-03-15T13:12:49.602Z,18.73
2019-03-15T13:15:18.873Z,18.20
2019-03-15T13:17:48.177Z,13.03
2019-03-15T13:20:17.858Z,21.20
2019-03-15T13:22:47.149Z,16.00
2019-03-15T13:25:16.415Z,14.97
2019-03-15T13:27:45.704Z,13.63
2019-03-15T13:30:18.156Z,18.87
2019-03-15T13:32:47.446Z,16.93
2019-03-15T13:35:16.728Z,11.03
2019-03-15T13:37:46.007Z,19.00
2019-03-15T13:40:17.273Z,13.13
2019-03-15T13:42:46.574Z,13.07
2019-03-15T13:45:16.461Z,6.77
2019-03-15T13:47:45.749Z,16.50
2019-03-15T13:50:18.957Z,14.33
2019-03-15T13:52:48.244Z,9.90
2019-03-15T13:55:17.514Z,14.73
2019-03-15T13:57:46.803Z,16.30
2019-03-15T14:00:17.213Z,18.33
2019-03-15T14:02:46.493Z,16.83
2019-03-15T14:05:15.767Z,18.83
2019-03-15T14:07:45.082Z,14.30
2019-03-15T14:10:15.298Z,10.70
2019-03-15T14:12:44.564Z,16.37
2019-03-15T14:15:18.132Z,14.67
2019-03-15T14:17:47.604Z,14.03
2019-03-15T14:20:16.905Z,15.07
2019-03-15T14:22:46.156Z,15.87
2019-03-15T14:25:18.512Z,11.10
2019-03-15T14:27:47.794Z,10.77
2019-03-15T14:30:17.070Z,14.23
2019-03-15T14:32:46.358Z,10.90
2019-03-15T14:35:15.630Z,14.90
2019-03-15T14:37:44.975Z,11.13
2019-03-15T14:40:14.552Z,14.97
2019-03-15T14:42:44.043Z,22.00
2019-03-15T14:45:15.453Z,16.50
2019-03-15T14:47:44.727Z,15.30
2019-03-15T14:50:14.653Z,14.33
2019-03-15T14:52:43.926Z,9.03
2019-03-15T14:55:14.546Z,9.13
2019-03-15T14:57:51.968Z,8.43
2019-03-15T15:00:21.091Z,14.90
2019-03-15T15:02:50.369Z,10.90
2019-03-15T15:05:19.658Z,12.97
2019-03-15T15:07:48.920Z,11.67
2019-03-15T15:10:18.647Z,7.40
2019-03-15T15:12:47.904Z,9.43
2019-03-15T15:15:18.842Z,9.30
2019-03-15T15:17:48.118Z,17.40
2019-03-15T15:20:18.364Z,12.43
2019-03-15T15:22:47.702Z,8.57
2019-03-15T15:25:17.723Z,8.73
2019-03-15T15:27:46.999Z,8.33
2019-03-15T15:30:17.205Z,8.93
2019-03-15T15:32:46.560Z,10.90
2019-03-15T15:35:16.013Z,10.93
2019-03-15T15:37:45.303Z,16.33
2019-03-15T15:40:16.112Z,12.67
2019-03-15T15:42:45.382Z,12.00
2019-03-15T15:45:14.904Z,9.73
2019-03-15T15:47:44.193Z,17.47
2019-03-15T15:50:14.508Z,11.53
2019-03-15T15:52:43.776Z,15.13
2019-03-15T15:55:15.033Z,15.63
2019-03-15T15:57:44.324Z,12.23
2019-03-15T16:00:15.133Z,14.50
2019-03-15T16:02:44.434Z,10.53
2019-03-15T16:05:13.875Z,17.80
2019-03-15T16:07:43.172Z,10.67
2019-03-15T16:10:17.998Z,19.97
2019-03-15T16:12:46.863Z,18.00
2019-03-15T16:15:17.583Z,14.77
2019-03-15T16:17:47.932Z,14.27
2019-03-15T16:20:17.196Z,20.33
2019-03-15T16:22:46.476Z,8.27
2019-03-15T16:25:15.756Z,12.77
2019-03-15T16:27:45.033Z,15.90
2019-03-15T16:30:16.608Z,11.37
2019-03-15T16:32:45.906Z,10.53
2019-03-15T16:35:15.261Z,9.53
2019-03-15T16:37:44.550Z,9.13
2019-03-15T16:40:15.642Z,10.00
2019-03-15T16:42:45.891Z,11.93
2019-03-15T16:45:26.173Z,11.43
2019-03-15T16:47:55.468Z,8.50
2019-03-15T16:50:24.729Z,9.80
2019-03-15T16:52:54.004Z,8.73
2019-03-15T16:55:23.351Z,10.67
2019-03-15T16:57:52.629Z,8.77
2019-03-15T17:00:21.914Z,7.17
2019-03-15T17:02:51.193Z,7.80
2019-03-15T17:05:20.484Z,8.17
2019-03-15T17:07:50.015Z,14.20
2019-03-15T17:10:19.827Z,8.23
2019-03-15T17:12:49.190Z,8.23
2019-03-15T17:15:23.429Z,4.70
2019-03-15T17:17:52.708Z,5.47
2019-03-15T17:20:22.048Z,3.33
2019-03-15T17:22:51.322Z,6.80
2019-03-15T17:25:20.587Z,4.90
2019-03-15T17:27:49.864Z,8.37
2019-03-15T17:30:19.211Z,3.83
2019-03-15T17:32:48.487Z,4.70
2019-03-15T17:35:20.091Z,5.57
2019-03-15T17:37:49.463Z,10.37
2019-03-15T17:40:19.776Z,7.40
2019-03-15T17:42:49.124Z,5.50
2019-03-15T17:45:18.464Z,3.60
2019-03-15T17:47:47.915Z,7.03
2019-03-15T17:50:22.329Z,5.57
2019-03-15T17:52:51.604Z,5.77
2019-03-15T17:55:20.949Z,7.07
2019-03-15T17:57:50.296Z,5.83
2019-03-15T18:00:23.915Z,6.53
2019-03-15T18:02:53.197Z,6.80
2019-03-15T18:05:22.464Z,5.80
2019-03-15T18:07:51.821Z,7.63
2019-03-15T18:10:21.056Z,6.63
2019-03-15T18:12:50.332Z,8.77
2019-03-15T18:15:19.616Z,12.93
2019-03-15T18:17:48.906Z,11.73
2019-03-15T18:20:18.256Z,5.37
2019-03-15T18:22:47.518Z,2.87
2019-03-15T18:25:16.809Z,8.47
2019-03-15T18:27:46.572Z,5.47
2019-03-15T18:30:16.850Z,4.90
2019-03-15T18:32:46.257Z,1.87
2019-03-15T18:35:15.544Z,2.63
2019-03-15T18:37:44.808Z,4.83
2019-03-15T18:40:19.239Z,6.17
2019-03-15T18:42:48.584Z,4.57
2019-03-15T18:45:18.705Z,4.67
2019-03-15T18:47:48.058Z,7.47
2019-03-15T18:50:19.470Z,8.40
2019-03-15T18:52:48.755Z,6.30
2019-03-15T18:55:18.101Z,4.67
2019-03-15T18:57:47.447Z,7.37
2019-03-15T19:00:23.156Z,5.33
2019-03-15T19:02:52.762Z,6.47
2019-03-15T19:05:22.055Z,10.30
2019-03-15T19:07:51.326Z,5.60
2019-03-15T19:10:20.678Z,9.20
2019-03-15T19:12:50.030Z,9.93
2019-03-15T19:15:20.759Z,10.63
2019-03-15T19:17:50.113Z,12.00
2019-03-15T19:20:19.475Z,12.10
2019-03-15T19:22:48.998Z,10.60
2019-03-15T19:25:18.287Z,9.60
2019-03-15T19:27:47.552Z,14.83
2019-03-15T19:30:18.297Z,12.70
2019-03-15T19:32:47.616Z,17.47
2019-03-15T19:35:16.891Z,22.27
2019-03-15T19:37:46.164Z,16.90
2019-03-15T19:40:16.694Z,12.40
2019-03-15T19:42:46.067Z,18.87
2019-03-15T19:45:15.974Z,21.90
2019-03-15T19:47:46.219Z,17.47
2019-03-15T19:50:17.565Z,23.27
2019-03-15T19:52:48.036Z,11.87
2019-03-15T19:55:17.395Z,14.20
2019-03-15T19:57:46.676Z,27.13
2019-03-15T20:00:17.207Z,20.57
2019-03-15T20:02:46.581Z,35.93
2019-03-15T20:05:15.912Z,15.30
2019-03-15T20:07:45.251Z,26.37
2019-03-15T20:10:16.824Z,22.70
2019-03-15T20:12:46.559Z,19.47
2019-03-15T20:15:17.233Z,22.33
2019-03-15T20:17:46.540Z,17.17
2019-03-15T20:20:16.961Z,16.87
2019-03-15T20:22:46.248Z,24.60
2019-03-15T20:25:16.361Z,14.63
2019-03-15T20:27:45.692Z,18.30
2019-03-15T20:30:25.915Z,16.13
2019-03-15T20:32:52.447Z,49.53
2019-03-15T20:35:21.746Z,38.50
2019-03-15T20:37:51.014Z,45.20
2019-03-15T20:40:20.299Z,26.33
2019-03-15T20:42:49.654Z,20.97
2019-03-15T20:45:23.718Z,13.63
2019-03-15T20:47:53.017Z,16.47
2019-03-15T20:50:22.290Z,23.10
2019-03-15T20:52:51.569Z,21.50
2019-03-15T20:55:20.832Z,14.20
2019-03-15T20:57:50.115Z,23.73
2019-03-15T21:00:34.414Z,24.33
2019-03-15T21:02:52.555Z,22.43
2019-03-15T21:05:21.851Z,18.20
2019-03-15T21:07:51.120Z,16.47
2019-03-15T21:10:20.409Z,16.73
2019-03-15T21:12:49.697Z,15.43
2019-03-15T21:15:19.128Z,20.57
2019-03-15T21:17:48.421Z,26.33
2019-03-15T21:20:22.822Z,16.93
2019-03-15T21:22:52.157Z,17.70
2019-03-15T21:25:21.431Z,18.83
2019-03-15T21:27:54.036Z,19.83
2019-03-15T21:30:23.517Z,22.43
2019-03-15T21:32:52.881Z,16.03
2019-03-15T21:35:22.152Z,35.60
2019-03-15T21:37:51.428Z,22.67
2019-03-15T21:40:21.660Z,18.00
2019-03-15T21:42:50.924Z,20.07
2019-03-15T21:45:20.193Z,16.20
2019-03-15T21:47:49.459Z,16.93
2019-03-15T21:50:23.236Z,13.20
2019-03-15T21:52:52.539Z,18.40
2019-03-15T21:55:21.835Z,17.37
2019-03-15T21:57:51.149Z,16.80
2019-03-15T22:00:20.785Z,22.93
2019-03-15T22:02:50.133Z,15.43
2019-03-15T22:05:19.396Z,21.90
2019-03-15T22:07:48.672Z,23.00
2019-03-15T22:10:17.951Z,30.03
2019-03-15T22:12:47.237Z,27.27
2019-03-15T22:15:16.577Z,23.77
2019-03-15T22:17:45.876Z,17.13
2019-03-15T22:20:17.951Z,24.60
2019-03-15T22:22:47.235Z,23.50
2019-03-15T22:25:16.480Z,23.27
2019-03-15T22:27:45.749Z,22.40
2019-03-15T22:30:15.266Z,19.33
2019-03-15T22:32:44.524Z,21.47
2019-03-15T22:35:13.801Z,21.60
2019-03-15T22:37:43.093Z,25.43
2019-03-15T22:40:13.531Z,17.93
2019-03-15T22:42:42.795Z,30.97
2019-03-15T22:45:13.294Z,13.77
2019-03-15T22:47:42.562Z,25.17
2019-03-15T22:50:12.980Z,14.67
2019-03-15T22:52:42.237Z,21.63
2019-03-15T22:55:11.907Z,20.43
2019-03-15T22:57:41.246Z,19.67
2019-03-15T23:00:15.890Z,17.80
2019-03-15T23:02:46.811Z,26.07
2019-03-15T23:05:16.128Z,21.40
2019-03-15T23:07:45.397Z,29.43
2019-03-15T23:10:14.665Z,19.93
2019-03-15T23:12:43.930Z,25.97
2019-03-15T23:15:13.199Z,19.97
2019-03-15T23:17:42.569Z,19.80
2019-03-15T23:20:13.157Z,20.87
2019-03-15T23:22:42.443Z,21.20
2019-03-15T23:25:11.730Z,23.83
2019-03-15T23:27:40.979Z,33.20
2019-03-15T23:30:12.758Z,28.57
2019-03-15T23:32:42.022Z,26.17
2019-03-15T23:35:11.300Z,18.13
2019-03-15T23:37:40.571Z,21.73
2019-03-15T23:40:11.939Z,22.27
2019-03-15T23:42:41.206Z,25.90
2019-03-15T23:45:11.125Z,28.80
2019-03-15T23:47:40.401Z,22.47
2019-03-15T23:50:11.621Z,28.90
2019-03-15T23:52:40.877Z,29.00
2019-03-15T23:55:10.295Z,27.17
2019-03-15T23:57:39.565Z,26.17
